Time;durP1;ratioP1;P1;durP2;ratioP2;P2;SDS_P1;SDS_P2;PMS_P1;PMS_P2;Temp;Humidity;BMP_temperature;BMP_pressure;BME280_temperature;BME280_humidity;BME280_pressure;Samples;Min_cycle;Max_cycle;Signal;HPM_P1;HPM_P2
2023/09/20 00:01:07;;;;;;;2.58;1.38;;;;;;;15.07;66.33;95555.97;6206198;23;20155;-80
2023/09/20 00:03:33;;;;;;;3.67;1.60;;;;;;;15.11;66.19;95565.13;6207194;23;20197;-79
2023/09/20 00:06:09;;;;;;;1.70;1.27;;;;;;;15.06;66.45;95552.53;6183817;23;20202;-81
2023/09/20 00:08:34;;;;;;;1.77;1.30;;;;;;;15.12;66.58;95546.63;6181355;23;20202;-80
2023/09/20 00:11:00;;;;;;;1.48;1.38;;;;;;;15.08;66.50;95549.75;6181812;23;20201;-79
2023/09/20 00:13:25;;;;;;;1.40;1.30;;;;;;;15.03;67.12;95537.22;6205977;23;20181;-80
2023/09/20 00:15:55;;;;;;;3.35;1.40;;;;;;;15.09;66.67;95536.50;6207191;23;20159;-80
2023/09/20 00:18:22;;;;;;;2.05;1.35;;;;;;;15.04;67.13;95532.78;6181944;23;20181;-80
2023/09/20 00:20:47;;;;;;;2.13;1.40;;;;;;;15.01;67.55;95539.16;6181945;23;20162;-80
2023/09/20 00:23:17;;;;;;;4.10;1.45;;;;;;;14.97;67.56;95537.91;6205498;23;20264;-80
2023/09/20 00:25:42;;;;;;;1.95;1.40;;;;;;;15.14;67.01;95535.97;6181665;23;20234;-81
2023/09/20 00:28:08;;;;;;;2.20;1.45;;;;;;;15.11;67.18;95533.72;6180878;23;20170;-79
2023/09/20 00:30:33;;;;;;;3.40;1.60;;;;;;;15.17;66.89;95527.78;6181867;23;20676;-79
2023/09/20 00:33:01;;;;;;;2.30;1.52;;;;;;;14.98;67.84;95529.88;6181150;23;20158;-80
2023/09/20 00:35:26;;;;;;;2.35;1.60;;;;;;;15.07;67.28;95529.81;6206172;23;20151;-80
2023/09/20 00:37:52;;;;;;;2.28;1.40;;;;;;;14.97;67.60;95528.25;6183210;23;20155;-79
2023/09/20 00:40:21;;;;;;;1.55;1.42;;;;;;;14.96;67.83;95518.78;6181606;23;20162;-78
2023/09/20 00:42:50;;;;;;;4.45;2.78;;;;;;;15.02;67.79;95520.72;6204287;23;20221;-79
2023/09/20 00:45:16;;;;;;;2.45;1.30;;;;;;;14.99;67.96;95521.03;6180447;23;20489;-80
2023/09/20 00:47:44;;;;;;;1.80;1.27;;;;;;;15.10;67.50;95522.44;6205933;23;20151;-79
2023/09/20 00:50:11;;;;;;;1.85;1.52;;;;;;;15.02;67.85;95525.13;6181722;23;20162;-79
2023/09/20 00:52:45;;;;;;;2.70;1.73;;;;;;;14.93;68.45;95521.78;6155600;23;20624;-79
2023/09/20 00:55:15;;;;;;;3.97;1.80;;;;;;;14.92;68.77;95524.53;6206374;23;20170;-79
2023/09/20 00:57:45;;;;;;;4.70;1.60;;;;;;;14.86;69.17;95520.03;6206712;23;20161;-80
2023/09/20 01:00:13;;;;;;;2.05;1.40;;;;;;;14.72;69.44;95521.56;6181293;23;20162;-80
2023/09/20 01:02:39;;;;;;;1.92;1.60;;;;;;;14.77;69.27;95514.03;6155624;23;20178;-80
2023/09/20 01:05:05;;;;;;;2.25;1.60;;;;;;;14.62;69.62;95521.81;6205032;23;20174;-78
2023/09/20 01:07:30;;;;;;;3.15;1.40;;;;;;;14.65;69.91;95511.00;6180759;23;20556;-79
2023/09/20 01:09:56;;;;;;;1.80;1.60;;;;;;;14.56;70.31;95516.44;6180688;23;20186;-78
2023/09/20 01:12:21;;;;;;;2.88;1.65;;;;;;;14.65;70.01;95523.25;6205086;23;20595;-79
2023/09/20 01:14:47;;;;;;;3.28;1.63;;;;;;;14.66;69.87;95520.44;6205759;23;20517;-79
2023/09/20 01:17:14;;;;;;;3.97;1.50;;;;;;;14.71;69.63;95523.38;6180600;23;20224;-79
2023/09/20 01:19:40;;;;;;;2.80;1.63;;;;;;;14.73;69.82;95515.34;6156082;23;20213;-80
2023/09/20 01:22:05;;;;;;;1.77;1.42;;;;;;;14.66;70.34;95517.03;6205196;23;20552;-80
2023/09/20 01:24:32;;;;;;;3.03;1.50;;;;;;;14.59;70.46;95513.50;6205397;23;20272;-80
2023/09/20 01:26:57;;;;;;;2.87;1.70;;;;;;;14.52;71.24;95518.59;6180794;23;20155;-78
2023/09/20 01:29:23;;;;;;;3.63;1.95;;;;;;;14.54;70.90;95508.78;6180994;23;20217;-80
2023/09/20 01:31:49;;;;;;;2.67;1.67;;;;;;;14.64;70.31;95516.41;6205179;23;20614;-80
2023/09/20 01:34:14;;;;;;;2.70;1.90;;;;;;;14.57;70.66;95510.22;6180245;23;20692;-80
2023/09/20 01:36:40;;;;;;;2.83;1.63;;;;;;;14.58;70.87;95517.91;6181185;23;20261;-80
2023/09/20 01:39:08;;;;;;;1.87;1.67;;;;;;;14.56;70.91;95508.59;6181104;23;20614;-80
2023/09/20 01:41:33;;;;;;;1.67;1.57;;;;;;;14.60;70.68;95512.50;6182510;23;20158;-80
2023/09/20 01:43:59;;;;;;;2.83;1.60;;;;;;;14.52;70.99;95507.34;6179826;23;20238;-80
2023/09/20 01:46:25;;;;;;;2.13;1.80;;;;;;;14.45;71.50;95507.22;6180512;23;20166;-77
2023/09/20 01:48:53;;;;;;;5.00;1.37;;;;;;;14.58;71.12;95511.88;6180498;23;20183;-80
2023/09/20 01:51:19;;;;;;;1.87;1.67;;;;;;;14.45;71.33;95517.66;6180784;23;20486;-80
2023/09/20 01:53:45;;;;;;;3.37;1.47;;;;;;;14.59;70.87;95514.31;6179617;23;20615;-81
2023/09/20 01:56:10;;;;;;;1.83;1.43;;;;;;;14.53;71.13;95515.00;6205935;23;20154;-78
2023/09/20 01:58:36;;;;;;;2.33;1.70;;;;;;;14.55;70.90;95512.22;6180182;23;20740;-80
2023/09/20 02:01:01;;;;;;;2.60;1.60;;;;;;;14.60;71.00;95507.28;6206078;23;20524;-77
2023/09/20 02:03:27;;;;;;;3.70;1.67;;;;;;;14.58;71.08;95507.47;6204643;23;20183;-81
2023/09/20 02:05:52;;;;;;;3.00;1.80;;;;;;;14.60;70.53;95500.25;6180430;23;20158;-79
2023/09/20 02:08:18;;;;;;;2.13;1.70;;;;;;;14.52;71.30;95486.44;6207777;23;20151;-79
2023/09/20 02:10:47;;;;;;;4.33;1.83;;;;;;;14.54;71.18;95495.72;6184224;23;20162;-80
2023/09/20 02:13:15;;;;;;;3.53;1.77;;;;;;;14.44;71.58;95488.06;6186325;23;20185;-81
2023/09/20 02:15:41;;;;;;;3.20;1.97;;;;;;;14.43;71.38;95494.28;6191874;23;20174;-80
2023/09/20 02:18:08;;;;;;;2.70;1.50;;;;;;;14.41;71.50;95485.81;6193796;23;20163;-80
2023/09/20 02:20:36;;;;;;;2.77;1.40;;;;;;;14.48;71.49;95495.59;6164202;23;20155;-79
2023/09/20 02:23:03;;;;;;;2.37;1.70;;;;;;;14.35;71.68;95491.72;6160962;23;20194;-79
2023/09/20 02:25:29;;;;;;;2.93;1.80;;;;;;;14.37;71.72;95488.94;6210356;23;20205;-81
2023/09/20 02:27:57;;;;;;;2.67;1.70;;;;;;;14.32;72.01;95493.88;6185506;23;20155;-79
2023/09/20 02:30:28;;;;;;;2.33;1.77;;;;;;;14.44;71.57;95495.91;6161394;23;20170;-80
2023/09/20 02:32:57;;;;;;;2.10;1.90;;;;;;;14.39;71.53;95493.00;6161008;23;20147;-80
2023/09/20 02:35:22;;;;;;;5.10;1.60;;;;;;;14.30;72.14;95494.03;6184969;23;20234;-80
2023/09/20 02:37:49;;;;;;;2.87;1.90;;;;;;;14.35;71.85;95481.28;6184093;23;20220;-79
2023/09/20 02:40:15;;;;;;;5.43;2.00;;;;;;;14.36;71.66;95493.34;6208368;23;20202;-80
2023/09/20 02:42:45;;;;;;;3.07;1.70;;;;;;;14.37;71.57;95494.16;6183189;23;20174;-80
2023/09/20 02:45:12;;;;;;;3.60;1.53;;;;;;;14.38;71.83;95503.63;6158917;23;20242;-80
2023/09/20 02:47:39;;;;;;;1.80;1.60;;;;;;;14.34;71.79;95491.91;6182974;23;20228;-79
2023/09/20 02:50:07;;;;;;;2.40;1.70;;;;;;;14.23;72.08;95494.91;6183569;23;20158;-80
2023/09/20 02:52:35;;;;;;;2.93;2.00;;;;;;;14.21;72.75;95499.47;6183229;23;20492;-80
2023/09/20 02:55:00;;;;;;;3.43;1.50;;;;;;;14.22;72.43;95491.44;6184874;23;20182;-80
2023/09/20 02:57:26;;;;;;;1.97;1.67;;;;;;;14.25;72.19;95491.13;6183258;23;20637;-78
2023/09/20 02:59:51;;;;;;;1.97;1.60;;;;;;;14.22;72.46;95485.41;6183462;23;20165;-80
2023/09/20 03:02:17;;;;;;;2.87;1.80;;;;;;;14.20;72.89;95482.97;6206812;23;20788;-78
2023/09/20 03:04:42;;;;;;;2.63;1.60;;;;;;;14.26;72.61;95476.28;6182879;23;20186;-79
2023/09/20 03:07:09;;;;;;;1.90;1.60;;;;;;;14.06;73.21;95471.47;6185031;23;20159;-80
2023/09/20 03:09:36;;;;;;;1.80;1.60;;;;;;;14.21;72.67;95468.94;6182178;23;20170;-79
2023/09/20 03:12:07;;;;;;;1.63;1.37;;;;;;;14.33;71.70;95464.97;6157771;23;20151;-81
2023/09/20 03:14:39;;;;;;;2.40;1.90;;;;;;;14.26;71.93;95466.63;6183969;23;20194;-80
2023/09/20 03:17:05;;;;;;;3.40;1.77;;;;;;;14.15;72.96;95459.19;6183566;23;20186;-81
2023/09/20 03:19:31;;;;;;;2.57;1.80;;;;;;;14.24;72.65;95460.78;6185515;23;20157;-80
2023/09/20 03:21:57;;;;;;;2.17;1.73;;;;;;;14.23;72.49;95456.53;6181881;23;20194;-79
2023/09/20 03:24:22;;;;;;;4.03;1.83;;;;;;;14.33;72.18;95457.13;6208200;23;20187;-79
2023/09/20 03:26:51;;;;;;;2.07;1.70;;;;;;;14.35;71.85;95455.16;6207768;23;20174;-80
2023/09/20 03:29:17;;;;;;;1.93;1.77;;;;;;;14.35;72.14;95452.53;6206934;23;20162;-81
2023/09/20 03:31:43;;;;;;;2.17;1.60;;;;;;;14.34;72.16;95450.91;6182877;23;20154;-80
2023/09/20 03:34:10;;;;;;;4.00;1.87;;;;;;;14.38;72.09;95457.41;6183238;23;20189;-81
2023/09/20 03:36:36;;;;;;;3.17;1.90;;;;;;;14.33;72.08;95443.25;6184353;23;20167;-80
2023/09/20 03:39:03;;;;;;;2.83;2.03;;;;;;;14.36;71.92;95446.31;6183885;23;20189;-80
2023/09/20 03:41:28;;;;;;;1.70;1.37;;;;;;;14.54;71.55;95450.47;6158965;23;20166;-81
2023/09/20 03:43:54;;;;;;;3.13;1.70;;;;;;;14.44;71.90;95441.03;6182950;23;20193;-81
2023/09/20 03:46:19;;;;;;;3.17;1.57;;;;;;;14.47;71.62;95444.31;6208984;23;20151;-81
2023/09/20 03:48:44;;;;;;;3.47;1.87;;;;;;;14.49;71.57;95448.41;6182386;23;20266;-80
2023/09/20 03:51:16;;;;;;;2.00;1.50;;;;;;;14.40;71.86;95445.00;6207119;23;20159;-80
2023/09/20 03:53:42;;;;;;;3.17;1.80;;;;;;;14.25;72.59;95438.06;6180397;23;20213;-80
2023/09/20 03:56:11;;;;;;;2.27;1.60;;;;;;;14.23;72.74;95440.88;6182661;23;20618;-79
2023/09/20 03:58:36;;;;;;;4.20;1.70;;;;;;;14.37;72.08;95432.28;6182702;23;20607;-81
2023/09/20 04:01:02;;;;;;;3.10;2.17;;;;;;;14.38;71.53;95428.66;6183131;23;20208;-80
2023/09/20 04:03:28;;;;;;;2.70;1.57;;;;;;;14.29;72.35;95432.31;6205229;23;20183;-80
2023/09/20 04:05:56;;;;;;;2.20;1.63;;;;;;;14.22;72.82;95431.38;6182574;23;20217;-79
2023/09/20 04:08:22;;;;;;;1.80;1.70;;;;;;;14.18;72.98;95438.75;6181500;23;20606;-81
2023/09/20 04:10:47;;;;;;;3.57;1.67;;;;;;;14.20;73.16;95433.34;6181868;23;20246;-80
2023/09/20 04:13:14;;;;;;;2.30;1.57;;;;;;;14.17;73.34;95437.13;6180541;23;20220;-81
2023/09/20 04:15:42;;;;;;;2.27;1.90;;;;;;;14.23;72.86;95434.84;6206772;23;20158;-80
2023/09/20 04:18:08;;;;;;;2.10;1.80;;;;;;;14.31;72.79;95432.97;6181892;23;20193;-80
2023/09/20 04:20:33;;;;;;;2.40;1.50;;;;;;;14.32;72.86;95437.22;6181781;23;20159;-80
2023/09/20 04:22:59;;;;;;;2.30;1.90;;;;;;;14.35;72.96;95423.81;6205175;23;20633;-79
2023/09/20 04:25:24;;;;;;;2.97;1.43;;;;;;;14.38;72.63;95417.41;6181525;23;20253;-79
2023/09/20 04:27:50;;;;;;;1.60;1.40;;;;;;;14.37;72.58;95426.22;6184720;23;20150;-81
2023/09/20 04:30:17;;;;;;;3.00;1.80;;;;;;;14.20;73.62;95424.72;6181516;23;20158;-81
2023/09/20 04:32:43;;;;;;;2.33;1.67;;;;;;;14.23;73.70;95414.75;6182125;23;20230;-80
2023/09/20 04:35:11;;;;;;;3.77;1.83;;;;;;;14.29;73.39;95414.03;6181750;23;20213;-80
2023/09/20 04:37:36;;;;;;;1.90;1.70;;;;;;;14.22;73.45;95413.09;6181714;23;20598;-80
2023/09/20 04:40:03;;;;;;;3.23;1.70;;;;;;;14.09;74.33;95405.84;6182574;23;20214;-79
2023/09/20 04:42:32;;;;;;;2.77;1.77;;;;;;;14.21;73.50;95403.66;6181741;23;20178;-77
2023/09/20 04:44:58;;;;;;;3.63;1.80;;;;;;;14.17;73.71;95405.81;6205537;23;20182;-76
2023/09/20 04:47:23;;;;;;;2.63;2.07;;;;;;;14.13;74.10;95412.38;6181395;23;20185;-77
2023/09/20 04:49:49;;;;;;;2.70;1.77;;;;;;;14.03;74.57;95414.34;6181252;23;20168;-78
2023/09/20 04:52:15;;;;;;;2.27;1.50;;;;;;;14.07;74.29;95413.03;6206038;23;20185;-77
2023/09/20 04:54:43;;;;;;;2.73;1.73;;;;;;;14.07;74.59;95410.44;6182672;23;20170;-77
2023/09/20 04:57:09;;;;;;;4.37;2.53;;;;;;;14.23;73.78;95406.91;6181139;23;20495;-77
2023/09/20 04:59:34;;;;;;;3.07;2.03;;;;;;;14.10;74.22;95404.03;6181390;23;20163;-77
2023/09/20 05:01:59;;;;;;;2.73;1.80;;;;;;;14.20;74.06;95420.31;6180319;23;20179;-77
2023/09/20 05:04:25;;;;;;;3.03;1.90;;;;;;;14.15;74.43;95412.19;6205758;23;20174;-77
2023/09/20 05:06:53;;;;;;;3.67;2.10;;;;;;;14.15;74.48;95412.19;6181611;23;20162;-77
2023/09/20 05:09:18;;;;;;;1.90;1.50;;;;;;;14.23;73.80;95414.75;6182959;23;20151;-77
2023/09/20 05:11:45;;;;;;;2.00;1.80;;;;;;;14.24;74.07;95416.38;6183317;23;20154;-78
2023/09/20 05:14:10;;;;;;;4.90;1.93;;;;;;;14.36;73.57;95414.97;6182047;23;20189;-77
2023/09/20 05:16:35;;;;;;;3.23;1.70;;;;;;;14.42;73.32;95421.31;6208900;23;20151;-78
2023/09/20 05:19:00;;;;;;;3.13;1.70;;;;;;;14.51;73.25;95416.88;6182143;23;20158;-78
2023/09/20 05:21:26;;;;;;;3.50;1.90;;;;;;;14.51;73.57;95417.69;6208263;23;20538;-77
2023/09/20 05:23:51;;;;;;;3.63;1.67;;;;;;;14.26;74.33;95414.41;6181599;23;20229;-78
2023/09/20 05:26:18;;;;;;;1.83;1.57;;;;;;;14.40;73.57;95424.09;6183510;23;20166;-77
2023/09/20 05:28:43;;;;;;;2.17;1.50;;;;;;;14.54;73.40;95424.34;6182807;23;20166;-76
2023/09/20 05:31:09;;;;;;;4.07;2.00;;;;;;;14.69;72.81;95422.63;6181876;23;20154;-77
2023/09/20 05:33:34;;;;;;;2.53;1.90;;;;;;;14.60;72.96;95416.63;6207286;23;20220;-79
2023/09/20 05:35:59;;;;;;;2.23;1.80;;;;;;;14.65;72.87;95418.72;6181690;23;20159;-80
2023/09/20 05:38:25;;;;;;;3.10;1.83;;;;;;;14.73;72.71;95416.03;6181708;23;20257;-78
2023/09/20 05:40:51;;;;;;;2.73;1.77;;;;;;;14.66;73.01;95407.25;6183475;23;20162;-79
2023/09/20 05:43:16;;;;;;;2.37;1.77;;;;;;;14.81;72.43;95408.13;6180181;23;20272;-78
2023/09/20 05:45:42;;;;;;;3.27;1.90;;;;;;;14.98;71.65;95414.81;6182857;23;20179;-79
2023/09/20 05:48:10;;;;;;;2.60;1.93;;;;;;;15.10;71.33;95415.19;6206854;23;20157;-78
2023/09/20 05:50:36;;;;;;;2.43;1.40;;;;;;;15.25;70.56;95405.56;6205577;23;20189;-79
2023/09/20 05:53:10;;;;;;;3.10;1.60;;;;;;;15.36;70.18;95406.91;6206193;23;20146;-79
2023/09/20 05:55:36;;;;;;;2.97;1.85;;;;;;;15.53;69.57;95408.34;6181858;23;20163;-79
2023/09/20 05:58:02;;;;;;;3.17;1.73;;;;;;;15.57;69.09;95409.63;6182503;23;20545;-78
2023/09/20 06:00:29;;;;;;;4.78;2.25;;;;;;;15.59;68.77;95415.50;6181746;23;20158;-81
2023/09/20 06:02:56;;;;;;;4.72;1.90;;;;;;;15.70;68.95;95421.28;6181011;23;20201;-80
2023/09/20 06:05:24;;;;;;;1.88;1.45;;;;;;;15.79;67.77;95422.81;6206645;23;20159;-80
2023/09/20 06:07:53;;;;;;;2.95;1.70;;;;;;;15.93;67.94;95429.84;6182075;23;20170;-80
2023/09/20 06:10:19;;;;;;;2.67;1.70;;;;;;;16.10;67.17;95420.78;6181780;23;20530;-80
2023/09/20 06:12:48;;;;;;;3.63;1.75;;;;;;;16.17;66.94;95430.50;6181534;23;20155;-81
2023/09/20 06:15:13;;;;;;;4.97;2.00;;;;;;;16.16;66.81;95429.69;6181775;23;20162;-80
2023/09/20 06:17:40;;;;;;;1.95;1.70;;;;;;;16.46;65.92;95425.19;6206610;23;20197;-80
2023/09/20 06:20:09;;;;;;;3.58;1.70;;;;;;;16.58;65.64;95431.53;6157070;23;20184;-79
2023/09/20 06:22:34;;;;;;;2.25;1.40;;;;;;;16.54;65.34;95430.31;6181904;23;20179;-81
2023/09/20 06:25:01;;;;;;;2.08;1.65;;;;;;;16.53;65.17;95430.50;6181158;23;20274;-80
2023/09/20 06:27:30;;;;;;;2.08;1.45;;;;;;;16.65;64.97;95424.56;6181453;23;20544;-78
2023/09/20 06:29:56;;;;;;;3.63;1.73;;;;;;;16.67;64.75;95425.16;6181579;23;20614;-79
2023/09/20 06:32:21;;;;;;;1.63;1.52;;;;;;;16.76;64.71;95422.44;6180874;23;20154;-80
2023/09/20 06:34:46;;;;;;;2.20;1.85;;;;;;;16.95;64.06;95429.66;6206392;23;20581;-80
2023/09/20 06:37:12;;;;;;;2.70;1.77;;;;;;;16.93;64.23;95423.81;6181260;23;20194;-80
2023/09/20 06:39:37;;;;;;;1.90;1.60;;;;;;;16.93;63.94;95422.00;6181373;23;20155;-79
2023/09/20 06:42:04;;;;;;;2.00;1.55;;;;;;;17.05;64.08;95427.56;6180836;23;20213;-80
2023/09/20 06:44:35;;;;;;;2.30;1.42;;;;;;;17.13;63.73;95418.72;6182756;23;20174;-79
2023/09/20 06:47:01;;;;;;;3.20;1.85;;;;;;;17.26;63.21;95416.19;6158359;23;20154;-81
2023/09/20 06:49:27;;;;;;;3.00;1.90;;;;;;;17.25;63.32;95419.81;6181547;23;20193;-79
2023/09/20 06:51:52;;;;;;;3.25;1.80;;;;;;;17.20;62.98;95419.56;6180415;23;20162;-80
2023/09/20 06:54:17;;;;;;;4.15;1.70;;;;;;;17.29;62.96;95410.53;6182824;23;20178;-80
2023/09/20 06:56:43;;;;;;;2.30;1.77;;;;;;;17.57;62.10;95413.13;6183172;23;20166;-81
2023/09/20 06:59:08;;;;;;;3.33;1.92;;;;;;;17.63;61.43;95403.69;6183125;23;20155;-80
2023/09/20 07:01:33;;;;;;;3.75;1.70;;;;;;;17.71;61.47;95398.28;6183798;23;20155;-80
2023/09/20 07:03:59;;;;;;;3.28;1.83;;;;;;;17.83;60.96;95402.78;6183293;23;20179;-81
2023/09/20 07:06:25;;;;;;;2.15;1.40;;;;;;;17.61;61.19;95398.63;6208384;23;20185;-81
2023/09/20 07:08:51;;;;;;;1.92;1.65;;;;;;;17.76;61.54;95401.97;6183417;23;20237;-81
2023/09/20 07:11:17;;;;;;;3.17;2.10;;;;;;;17.90;60.68;95396.75;6208316;23;20603;-80
2023/09/20 09:00:24;;;;;;;3.55;1.65;;;;;;;21.72;51.79;95399.13;6159676;23;20146;-85
2023/09/20 09:02:52;;;;;;;1.98;1.60;;;;;;;21.93;50.77;95387.31;6158052;23;20179;-85
2023/09/20 09:05:28;;;;;;;2.78;1.77;;;;;;;22.10;50.67;95392.84;6133636;23;20163;-85
2023/09/20 09:07:55;;;;;;;3.88;1.90;;;;;;;22.25;49.22;95387.13;6157593;23;20143;-85
2023/09/20 09:10:20;;;;;;;2.17;1.75;;;;;;;22.52;49.55;95387.56;6183445;23;20160;-85
2023/09/20 09:12:46;;;;;;;3.22;1.70;;;;;;;22.26;49.46;95389.59;6131535;23;20190;-85
2023/09/20 09:15:12;;;;;;;2.85;1.70;;;;;;;22.18;49.08;95376.66;6156218;23;20249;-85
2023/09/20 09:17:43;;;;;;;3.42;1.95;;;;;;;22.14;48.86;95379.97;6131980;23;20189;-84
2023/09/20 09:20:10;;;;;;;1.67;1.50;;;;;;;22.21;46.93;95388.63;6157438;23;20230;-84
2023/09/20 09:22:42;;;;;;;3.75;1.80;;;;;;;22.33;47.71;95386.81;6157105;23;20185;-85
2023/09/20 09:25:11;;;;;;;3.38;1.80;;;;;;;22.10;47.52;95379.63;6158466;23;20183;-85
2023/09/20 09:27:37;;;;;;;2.53;1.70;;;;;;;22.28;48.82;95382.22;6182090;23;20166;-85
2023/09/20 09:30:03;;;;;;;4.38;1.95;;;;;;;22.39;49.03;95385.13;6183345;23;20171;-85
2023/09/20 09:32:35;;;;;;;3.55;1.90;;;;;;;22.52;46.57;95383.09;6156951;23;20240;-85
2023/09/20 09:35:03;;;;;;;2.60;1.65;;;;;;;22.40;48.14;95379.59;6158560;23;20186;-85
2023/09/20 09:37:31;;;;;;;3.13;2.10;;;;;;;22.33;47.44;95371.75;6133175;23;20166;-85
2023/09/20 09:40:00;;;;;;;3.95;1.60;;;;;;;22.31;47.07;95367.72;6182327;23;20159;-85
2023/09/20 09:42:28;;;;;;;1.88;1.67;;;;;;;22.24;48.42;95365.16;6156288;23;20175;-84
2023/09/20 09:44:55;;;;;;;1.88;1.65;;;;;;;21.99;48.33;95362.63;6157462;23;20186;-85
2023/09/20 09:47:20;;;;;;;2.42;1.80;;;;;;;22.16;48.93;95360.19;6157734;23;20630;-85
2023/09/20 09:49:48;;;;;;;4.40;1.95;;;;;;;22.04;48.89;95359.31;6158132;23;20159;-83
2023/09/20 09:52:17;;;;;;;3.28;2.00;;;;;;;22.14;48.39;95364.91;6178342;23;20158;-79
2023/09/20 09:54:44;;;;;;;5.38;1.80;;;;;;;21.77;49.41;95353.56;6152481;23;20320;-79
2023/09/20 09:57:11;;;;;;;4.00;2.13;;;;;;;21.97;48.64;95354.09;6178173;23;20171;-80
2023/09/20 09:59:36;;;;;;;2.00;1.77;;;;;;;22.09;47.94;95356.03;6177500;23;20242;-79
2023/09/20 10:02:03;;;;;;;9.23;2.00;;;;;;;22.16;47.47;95351.44;6152697;23;20210;-80
2023/09/20 10:04:30;;;;;;;2.88;2.00;;;;;;;22.05;47.31;95347.69;6177791;23;20274;-80
2023/09/20 10:07:15;;;;;;;2.05;1.85;;;;;;;21.84;49.08;95348.19;6153667;23;20206;-78
2023/09/20 10:09:42;;;;;;;2.30;1.98;;;;;;;21.90;47.90;95337.50;6177404;23;20265;-80
2023/09/20 10:12:08;;;;;;;3.10;1.98;;;;;;;21.61;47.93;95336.44;6128108;23;20511;-80
2023/09/20 10:14:36;;;;;;;3.28;2.42;;;;;;;21.80;47.46;95339.88;6154993;23;20179;-80
2023/09/20 10:17:02;;;;;;;4.50;2.00;;;;;;;22.05;47.30;95342.41;6178118;23;20162;-78
2023/09/20 10:19:28;;;;;;;6.97;2.50;;;;;;;22.04;48.00;95324.94;6178173;23;20190;-80
2023/09/20 10:22:09;;;;;;;2.85;1.80;;;;;;;21.70;49.18;95343.06;6154915;23;20171;-80
2023/09/20 10:24:53;;;;;;;2.90;1.70;;;;;;;22.17;48.68;95335.34;6178190;23;20678;-79
2023/09/20 10:27:20;;;;;;;4.82;2.30;;;;;;;22.42;49.21;95332.56;6178622;23;20625;-79
2023/09/20 10:30:02;;;;;;;2.65;1.75;;;;;;;22.24;46.47;95327.34;6131034;23;20170;-80
2023/09/20 10:32:37;;;;;;;2.30;1.92;;;;;;;22.03;46.35;95326.78;6179044;23;20154;-78
2023/09/20 10:35:31;;;;;;;2.65;2.00;;;;;;;22.03;46.45;95323.34;6154522;23;20183;-80
2023/09/20 10:38:10;;;;;;;3.25;2.00;;;;;;;22.05;46.72;95311.50;6152622;23;20179;-80
2023/09/20 10:40:45;;;;;;;2.28;1.83;;;;;;;22.27;46.41;95308.38;6176823;23;20159;-79
2023/09/20 10:43:25;;;;;;;2.30;1.80;;;;;;;21.97;46.76;95295.94;6153365;23;20190;-80
2023/09/20 10:45:52;;;;;;;1.80;1.60;;;;;;;22.08;46.36;95297.03;6177928;23;20177;-80
2023/09/20 10:48:18;;;;;;;2.85;2.05;;;;;;;22.37;46.41;95294.59;6131935;23;20218;-78
2023/09/20 10:50:57;;;;;;;3.45;2.13;;;;;;;22.19;46.35;95306.88;6157662;23;20163;-77
2023/09/20 10:53:43;;;;;;;3.03;1.80;;;;;;;22.30;46.46;95294.69;6158564;23;20167;-77
2023/09/20 10:56:14;;;;;;;3.55;1.90;;;;;;;22.50;47.10;95291.75;6160468;23;20159;-78
2023/09/20 10:58:42;;;;;;;5.22;2.08;;;;;;;22.72;46.83;95286.72;6155848;23;20168;-77
2023/09/20 11:01:10;;;;;;;3.20;2.17;;;;;;;22.58;45.18;95283.47;6182362;23;20182;-76
2023/09/20 11:03:35;;;;;;;2.08;1.80;;;;;;;22.59;44.36;95282.44;6132331;23;20214;-79
2023/09/20 11:06:00;;;;;;;3.13;1.83;;;;;;;22.54;45.17;95282.31;6178212;23;20160;-75
2023/09/20 11:08:26;;;;;;;2.85;2.22;;;;;;;22.51;45.45;95278.28;6177273;23;20162;-76
2023/09/20 11:10:53;;;;;;;3.28;1.90;;;;;;;22.74;45.32;95276.69;6151974;23;20172;-76
2023/09/20 11:13:21;;;;;;;2.50;1.90;;;;;;;22.48;45.05;95273.44;6127730;23;20182;-76
2023/09/20 11:15:48;;;;;;;3.53;1.92;;;;;;;22.40;44.71;95265.84;6152947;23;20170;-77
2023/09/20 11:18:19;;;;;;;5.35;1.90;;;;;;;22.65;44.31;95270.94;6177593;23;20158;-77
2023/09/20 11:20:48;;;;;;;5.43;1.95;;;;;;;22.63;44.83;95265.06;6154374;23;20158;-76
2023/09/20 11:23:14;;;;;;;2.88;1.90;;;;;;;22.44;44.53;95267.03;6152391;23;20183;-77
2023/09/20 11:25:41;;;;;;;1.70;1.42;;;;;;;22.79;44.86;95260.91;6154318;23;20170;-77
2023/09/20 11:28:08;;;;;;;4.03;2.10;;;;;;;23.00;42.98;95257.72;6130379;23;20202;-77
2023/09/20 11:30:34;;;;;;;2.47;2.00;;;;;;;23.19;43.52;95255.75;6180138;23;20178;-79
2023/09/20 11:33:01;;;;;;;3.53;2.10;;;;;;;23.06;44.08;95261.31;6178107;23;20160;-78
2023/09/20 11:35:38;;;;;;;4.85;2.10;;;;;;;23.16;43.02;95261.50;6177208;23;20255;-85
2023/09/20 11:38:04;;;;;;;3.25;2.08;;;;;;;23.38;42.04;95253.75;6150614;23;20638;-82
2023/09/20 11:40:42;;;;;;;5.03;2.40;;;;;;;23.46;40.58;95266.63;6151841;23;20657;-83
2023/09/20 11:43:09;;;;;;;3.55;2.55;;;;;;;23.74;40.48;95256.06;6175498;23;20187;-82
2023/09/20 11:45:35;;;;;;;4.50;2.15;;;;;;;23.73;40.11;95256.31;6176271;23;20186;-82
2023/09/20 11:48:08;;;;;;;2.58;2.08;;;;;;;23.50;40.99;95246.59;6126967;23;20163;-83
2023/09/20 11:50:34;;;;;;;2.90;2.53;;;;;;;23.69;40.03;95239.28;6153983;23;20159;-83
2023/09/20 11:52:59;;;;;;;6.22;2.60;;;;;;;23.80;40.10;95238.41;6175761;23;20155;-82
2023/09/20 11:55:26;;;;;;;2.50;2.05;;;;;;;23.97;39.74;95236.59;6175156;23;20163;-83
2023/09/20 11:57:52;;;;;;;3.67;2.85;;;;;;;23.99;40.75;95228.41;6175888;23;20171;-82
2023/09/20 12:00:19;;;;;;;3.78;2.30;;;;;;;24.07;38.99;95219.25;6151134;23;20182;-83
2023/09/20 12:02:45;;;;;;;3.55;2.60;;;;;;;24.02;39.25;95228.72;6151216;23;20179;-85
2023/09/20 12:05:11;;;;;;;4.13;2.40;;;;;;;24.25;38.13;95221.69;6128528;23;20187;-85
2023/09/20 12:07:36;;;;;;;2.65;2.45;;;;;;;24.34;37.63;95214.97;6178460;23;20630;-84
2023/09/20 12:10:02;;;;;;;3.20;2.33;;;;;;;24.45;38.14;95222.03;6176562;23;20167;-84
2023/09/20 12:12:31;;;;;;;2.63;2.33;;;;;;;24.60;37.84;95218.00;6175638;23;20167;-83
2023/09/20 12:14:56;;;;;;;3.20;2.53;;;;;;;24.68;38.11;95204.31;6151910;23;20183;-84
2023/09/20 12:17:21;;;;;;;2.65;2.38;;;;;;;24.77;38.07;95202.88;6174371;23;20170;-82
2023/09/20 12:19:47;;;;;;;2.83;2.60;;;;;;;24.58;37.73;95205.00;6151006;23;20329;-83
2023/09/20 12:22:12;;;;;;;4.45;2.85;;;;;;;24.01;37.76;95205.91;6125836;23;20175;-85
2023/09/20 12:24:37;;;;;;;3.95;2.50;;;;;;;24.05;38.43;95205.44;6130852;23;20590;-83
2023/09/20 12:27:05;;;;;;;3.60;2.78;;;;;;;24.09;37.96;95206.56;6159465;23;20186;-85
2023/09/20 12:29:30;;;;;;;4.57;2.42;;;;;;;24.18;37.35;95194.50;6184393;23;20175;-84
2023/09/20 12:31:56;;;;;;;2.72;2.53;;;;;;;24.46;37.57;95185.69;6183137;23;20472;-84
2023/09/20 12:34:22;;;;;;;4.45;2.53;;;;;;;24.15;37.70;95192.34;6156357;23;20179;-85
2023/09/20 12:36:48;;;;;;;3.38;2.67;;;;;;;24.35;37.47;95190.03;6182246;23;20155;-85
2023/09/20 12:39:14;;;;;;;3.33;2.85;;;;;;;24.34;37.28;95177.00;6157209;23;20750;-84
2023/09/20 12:41:42;;;;;;;2.90;2.50;;;;;;;24.16;37.38;95178.03;6155700;23;20167;-85
2023/09/20 12:44:07;;;;;;;4.60;3.05;;;;;;;24.33;37.10;95170.91;6156554;23;20175;-86
2023/09/20 12:46:33;;;;;;;3.90;2.75;;;;;;;24.69;36.84;95160.78;6156783;23;20174;-84
2023/09/20 12:48:58;;;;;;;3.22;2.72;;;;;;;24.54;37.02;95159.53;6178629;23;20165;-83
2023/09/20 12:51:25;;;;;;;3.33;2.30;;;;;;;25.04;35.92;95155.16;6205038;23;20155;-83
2023/09/20 12:53:50;;;;;;;2.80;2.55;;;;;;;25.05;37.01;95162.88;6155591;23;20171;-82
2023/09/20 12:56:16;;;;;;;3.53;2.60;;;;;;;24.96;35.17;95148.41;6180128;23;20171;-83
2023/09/20 12:58:41;;;;;;;3.47;2.75;;;;;;;25.28;35.67;95150.41;6161060;23;20159;-85
2023/09/20 13:01:09;;;;;;;3.20;2.50;;;;;;;25.23;34.63;95148.47;6181960;23;20166;-85
2023/09/20 13:03:40;;;;;;;3.90;2.72;;;;;;;25.17;35.15;95138.84;6184449;23;20250;-86
2023/09/20 13:06:07;;;;;;;3.80;2.90;;;;;;;24.48;35.51;95141.94;6184279;23;20162;-85
2023/09/20 13:08:32;;;;;;;3.42;2.80;;;;;;;24.82;35.37;95139.97;6182883;23;20250;-84
2023/09/20 13:10:57;;;;;;;3.10;2.78;;;;;;;24.94;34.82;95131.91;6133216;23;20163;-81
2023/09/20 13:13:23;;;;;;;3.90;2.92;;;;;;;25.14;34.72;95134.84;6156834;23;20266;-82
2023/09/20 13:15:49;;;;;;;5.68;2.97;;;;;;;25.09;34.81;95131.31;6184581;23;20678;-80
2023/09/20 13:18:16;;;;;;;3.05;2.75;;;;;;;25.52;34.03;95129.63;6161962;23;20546;-79
2023/09/20 13:20:42;;;;;;;5.72;3.35;;;;;;;25.38;33.64;95124.75;6184324;23;20159;-81